sensor_id;sensor_type;location;lat;lon;timestamp;pressure;altitude;pressure_sealevel;temperature;humidity
5996;BME280;3026;53.612;7.278;2023-01-25T00:00:06;103755.16;;;1.30;100.00
5996;BME280;3026;53.612;7.278;2023-01-25T00:02:33;103748.03;;;1.29;100.00
5996;BME280;3026;53.612;7.278;2023-01-25T00:05:00;103751.69;;;1.25;100.00
5996;BME280;3026;53.612;7.278;2023-01-25T00:07:27;103754.47;;;1.22;100.00
5996;BME280;3026;53.612;7.278;2023-01-25T00:09:54;103748.19;;;1.23;100.00
5996;BME280;3026;53.612;7.278;2023-01-25T00:12:23;103752.63;;;1.24;100.00
5996;BME280;3026;53.612;7.278;2023-01-25T00:14:50;103743.72;;;1.22;100.00
5996;BME280;3026;53.612;7.278;2023-01-25T00:17:17;103730.44;;;1.15;100.00
5996;BME280;3026;53.612;7.278;2023-01-25T00:19:45;103732.22;;;1.16;100.00
5996;BME280;3026;53.612;7.278;2023-01-25T00:22:12;103724.28;;;1.12;100.00
5996;BME280;3026;53.612;7.278;2023-01-25T00:24:39;103730.53;;;1.12;100.00
5996;BME280;3026;53.612;7.278;2023-01-25T00:27:06;103726.13;;;1.10;100.00
5996;BME280;3026;53.612;7.278;2023-01-25T00:29:35;103719.78;;;1.12;100.00
5996;BME280;3026;53.612;7.278;2023-01-25T00:32:26;103719.69;;;1.15;100.00
5996;BME280;3026;53.612;7.278;2023-01-25T00:34:54;103718.97;;;1.09;100.00
5996;BME280;3026;53.612;7.278;2023-01-25T00:37:28;103712.81;;;1.05;100.00
5996;BME280;3026;53.612;7.278;2023-01-25T00:39:55;103712.88;;;1.02;100.00
5996;BME280;3026;53.612;7.278;2023-01-25T00:42:22;103710.19;;;1.02;100.00
5996;BME280;3026;53.612;7.278;2023-01-25T00:44:51;103712.88;;;1.02;100.00
5996;BME280;3026;53.612;7.278;2023-01-25T00:47:18;103709.34;;;1.00;100.00
5996;BME280;3026;53.612;7.278;2023-01-25T00:49:45;103714.88;;;0.96;100.00
5996;BME280;3026;53.612;7.278;2023-01-25T00:52:13;103713.97;;;0.95;100.00
5996;BME280;3026;53.612;7.278;2023-01-25T00:54:40;103707.78;;;0.93;100.00
5996;BME280;3026;53.612;7.278;2023-01-25T00:57:08;103700.59;;;0.94;100.00
5996;BME280;3026;53.612;7.278;2023-01-25T00:59:35;103703.28;;;0.94;100.00
5996;BME280;3026;53.612;7.278;2023-01-25T01:02:03;103700.59;;;0.94;100.00
5996;BME280;3026;53.612;7.278;2023-01-25T01:04:31;103699.66;;;0.95;100.00
5996;BME280;3026;53.612;7.278;2023-01-25T01:06:58;103693.41;;;0.94;100.00
5996;BME280;3026;53.612;7.278;2023-01-25T01:09:24;103685.31;;;0.96;100.00
5996;BME280;3026;53.612;7.278;2023-01-25T01:11:52;103685.31;;;0.96;100.00
5996;BME280;3026;53.612;7.278;2023-01-25T01:14:21;103686.16;;;0.98;100.00
5996;BME280;3026;53.612;7.278;2023-01-25T01:16:48;103683.47;;;0.98;100.00
5996;BME280;3026;53.612;7.278;2023-01-25T01:19:16;103675.34;;;0.99;100.00
5996;BME280;3026;53.612;7.278;2023-01-25T01:21:44;103670.06;;;0.96;100.00
5996;BME280;3026;53.612;7.278;2023-01-25T01:24:11;103680.81;;;0.96;100.00
5996;BME280;3026;53.612;7.278;2023-01-25T01:26:38;103683.56;;;0.95;100.00
5996;BME280;3026;53.612;7.278;2023-01-25T01:29:05;103680.81;;;0.96;100.00
5996;BME280;3026;53.612;7.278;2023-01-25T01:31:32;103683.56;;;0.95;100.00
5996;BME280;3026;53.612;7.278;2023-01-25T01:33:59;103677.28;;;0.94;100.00
5996;BME280;3026;53.612;7.278;2023-01-25T01:36:29;103680.91;;;0.93;100.00
5996;BME280;3026;53.612;7.278;2023-01-25T01:38:57;103680.97;;;0.90;100.00
5996;BME280;3026;53.612;7.278;2023-01-25T01:41:25;103673.00;;;0.87;100.00
5996;BME280;3026;53.612;7.278;2023-01-25T01:43:52;103659.72;;;0.81;100.00
5996;BME280;3026;53.612;7.278;2023-01-25T01:46:23;103666.09;;;0.77;100.00
5996;BME280;3026;53.612;7.278;2023-01-25T01:48:53;103662.47;;;0.78;100.00
5996;BME280;3026;53.612;7.278;2023-01-25T01:51:24;103656.28;;;0.76;100.00
5996;BME280;3026;53.612;7.278;2023-01-25T01:53:56;103657.16;;;0.76;100.00
5996;BME280;3026;53.612;7.278;2023-01-25T01:56:30;103656.28;;;0.76;100.00
5996;BME280;3026;53.612;7.278;2023-01-25T01:58:59;103638.31;;;0.78;100.00
5996;BME280;3026;53.612;7.278;2023-01-25T02:01:26;103656.28;;;0.76;100.00
5996;BME280;3026;53.612;7.278;2023-01-25T02:03:54;103643.81;;;0.73;100.00
5996;BME280;3026;53.612;7.278;2023-01-25T02:06:26;103640.25;;;0.73;100.00
5996;BME280;3026;53.612;7.278;2023-01-25T02:08:56;103642.94;;;0.73;100.00
5996;BME280;3026;53.612;7.278;2023-01-25T02:11:25;103636.75;;;0.69;100.00
5996;BME280;3026;53.612;7.278;2023-01-25T02:13:54;103630.59;;;0.66;100.00
5996;BME280;3026;53.612;7.278;2023-01-25T02:16:25;103635.03;;;0.67;100.00
5996;BME280;3026;53.612;7.278;2023-01-25T02:18:56;103633.22;;;0.67;100.00
5996;BME280;3026;53.612;7.278;2023-01-25T02:21:23;103633.19;;;0.69;100.00
5996;BME280;3026;53.612;7.278;2023-01-25T02:23:54;103632.28;;;0.68;100.00
5996;BME280;3026;53.612;7.278;2023-01-25T02:26:24;103624.28;;;0.67;100.00
5996;BME280;3026;53.612;7.278;2023-01-25T02:28:55;103624.25;;;0.68;100.00
5996;BME280;3026;53.612;7.278;2023-01-25T02:31:24;103608.16;;;0.67;100.00
5996;BME280;3026;53.612;7.278;2023-01-25T02:33:51;103618.84;;;0.70;100.00
5996;BME280;3026;53.612;7.278;2023-01-25T02:36:20;103617.00;;;0.72;100.00
5996;BME280;3026;53.612;7.278;2023-01-25T02:38:53;103617.88;;;0.72;100.00
5996;BME280;3026;53.612;7.278;2023-01-25T02:41:26;103611.63;;;0.72;100.00
5996;BME280;3026;53.612;7.278;2023-01-25T02:43:53;103626.91;;;0.70;100.00
5996;BME280;3026;53.612;7.278;2023-01-25T02:46:23;103616.13;;;0.71;100.00
5996;BME280;3026;53.612;7.278;2023-01-25T02:48:52;103620.63;;;0.71;100.00
5996;BME280;3026;53.612;7.278;2023-01-25T02:51:21;103608.16;;;0.67;100.00
5996;BME280;3026;53.612;7.278;2023-01-25T02:53:48;103616.28;;;0.65;100.00
5996;BME280;3026;53.612;7.278;2023-01-25T02:56:15;103618.16;;;0.62;100.00
5996;BME280;3026;53.612;7.278;2023-01-25T02:58:44;103619.16;;;0.57;100.00
5996;BME280;3026;53.612;7.278;2023-01-25T03:01:12;103614.75;;;0.55;100.00
5996;BME280;3026;53.612;7.278;2023-01-25T03:03:40;103612.94;;;0.55;100.00
5996;BME280;3026;53.612;7.278;2023-01-25T03:06:07;103615.72;;;0.52;100.00
5996;BME280;3026;53.612;7.278;2023-01-25T03:08:34;103607.72;;;0.51;100.00
5996;BME280;3026;53.612;7.278;2023-01-25T03:11:03;103605.94;;;0.50;100.00
5996;BME280;3026;53.612;7.278;2023-01-25T03:13:32;103612.09;;;0.53;100.00
5996;BME280;3026;53.612;7.278;2023-01-25T03:16:02;103599.53;;;0.55;100.00
5996;BME280;3026;53.612;7.278;2023-01-25T03:18:30;103597.66;;;0.57;100.00
5996;BME280;3026;53.612;7.278;2023-01-25T03:21:03;103584.34;;;0.54;100.00
5996;BME280;3026;53.612;7.278;2023-01-25T03:23:30;103592.28;;;0.57;100.00
5996;BME280;3026;53.612;7.278;2023-01-25T03:26:04;103582.44;;;0.60;100.00
5996;BME280;3026;53.612;7.278;2023-01-25T03:28:31;103576.19;;;0.57;100.00
5996;BME280;3026;53.612;7.278;2023-01-25T03:30:58;103573.50;;;0.59;100.00
5996;BME280;3026;53.612;7.278;2023-01-25T03:33:26;103574.38;;;0.60;100.00
5996;BME280;3026;53.612;7.278;2023-01-25T03:35:53;103569.88;;;0.60;100.00
5996;BME280;3026;53.612;7.278;2023-01-25T03:38:20;103571.69;;;0.60;100.00
5996;BME280;3026;53.612;7.278;2023-01-25T03:40:48;103568.19;;;0.56;100.00
5996;BME280;3026;53.612;7.278;2023-01-25T03:43:15;103572.75;;;0.52;100.00
5996;BME280;3026;53.612;7.278;2023-01-25T03:45:42;103565.72;;;0.48;100.00
5996;BME280;3026;53.612;7.278;2023-01-25T03:48:09;103564.91;;;0.45;100.00
5996;BME280;3026;53.612;7.278;2023-01-25T03:50:37;103567.63;;;0.43;100.00
5996;BME280;3026;53.612;7.278;2023-01-25T03:53:21;103556.88;;;0.43;100.00
5996;BME280;3026;53.612;7.278;2023-01-25T03:55:55;103550.69;;;0.41;100.00
5996;BME280;3026;53.612;7.278;2023-01-25T03:58:22;103552.50;;;0.41;100.00
5996;BME280;3026;53.612;7.278;2023-01-25T04:00:50;103550.59;;;0.44;100.00
5996;BME280;3026;53.612;7.278;2023-01-25T04:03:19;103549.75;;;0.42;100.00
5996;BME280;3026;53.612;7.278;2023-01-25T04:05:47;103541.78;;;0.39;100.00
5996;BME280;3026;53.612;7.278;2023-01-25T04:08:15;103553.38;;;0.41;100.00
5996;BME280;3026;53.612;7.278;2023-01-25T04:10:42;103550.69;;;0.41;100.00
5996;BME280;3026;53.612;7.278;2023-01-25T04:13:10;103546.16;;;0.43;100.00
5996;BME280;3026;53.612;7.278;2023-01-25T04:15:37;103540.00;;;0.40;100.00
5996;BME280;3026;53.612;7.278;2023-01-25T04:18:04;103539.13;;;0.39;100.00
5996;BME280;3026;53.612;7.278;2023-01-25T04:20:31;103535.59;;;0.37;100.00
5996;BME280;3026;53.612;7.278;2023-01-25T04:22:59;103532.81;;;0.40;100.00
5996;BME280;3026;53.612;7.278;2023-01-25T04:25:26;103531.09;;;0.38;100.00
5996;BME280;3026;53.612;7.278;2023-01-25T04:27:53;103530.22;;;0.37;100.00
5996;BME280;3026;53.612;7.278;2023-01-25T04:30:20;103533.84;;;0.36;100.00
5996;BME280;3026;53.612;7.278;2023-01-25T04:32:47;103516.97;;;0.31;100.00
5996;BME280;3026;53.612;7.278;2023-01-25T04:35:14;103520.47;;;0.33;100.00
5996;BME280;3026;53.612;7.278;2023-01-25T04:37:41;103512.50;;;0.30;100.00
5996;BME280;3026;53.612;7.278;2023-01-25T04:40:10;103509.09;;;0.25;100.00
5996;BME280;3026;53.612;7.278;2023-01-25T04:42:37;103508.13;;;0.27;100.00
5996;BME280;3026;53.612;7.278;2023-01-25T04:45:05;103505.38;;;0.29;100.00
5996;BME280;3026;53.612;7.278;2023-01-25T04:47:32;103500.09;;;0.26;100.00
5996;BME280;3026;53.612;7.278;2023-01-25T04:50:00;103498.41;;;0.22;100.00
5996;BME280;3026;53.612;7.278;2023-01-25T04:52:26;103493.03;;;0.22;100.00
5996;BME280;3026;53.612;7.278;2023-01-25T04:54:53;103496.66;;;0.21;100.00
5996;BME280;3026;53.612;7.278;2023-01-25T04:57:22;103491.28;;;0.21;100.00
5996;BME280;3026;53.612;7.278;2023-01-25T04:59:48;103498.41;;;0.22;100.00
5996;BME280;3026;53.612;7.278;2023-01-25T05:02:15;103500.16;;;0.23;100.00
5996;BME280;3026;53.612;7.278;2023-01-25T05:04:42;103505.53;;;0.24;100.00
5996;BME280;3026;53.612;7.278;2023-01-25T05:07:09;103510.75;;;0.29;100.00
5996;BME280;3026;53.612;7.278;2023-01-25T05:09:36;103510.59;;;0.35;100.00
5996;BME280;3026;53.612;7.278;2023-01-25T05:12:03;103511.50;;;0.34;100.00
5996;BME280;3026;53.612;7.278;2023-01-25T05:14:37;103512.41;;;0.33;100.00
5996;BME280;3026;53.612;7.278;2023-01-25T05:17:05;103512.41;;;0.33;100.00
5996;BME280;3026;53.612;7.278;2023-01-25T05:19:32;103507.06;;;0.33;100.00
5996;BME280;3026;53.612;7.278;2023-01-25T05:21:59;103512.41;;;0.33;100.00
5996;BME280;3026;53.612;7.278;2023-01-25T05:24:27;103498.06;;;0.34;100.00
5996;BME280;3026;53.612;7.278;2023-01-25T05:26:54;103498.06;;;0.34;100.00
5996;BME280;3026;53.612;7.278;2023-01-25T05:29:28;103490.84;;;0.38;100.00
5996;BME280;3026;53.612;7.278;2023-01-25T05:31:57;103501.53;;;0.39;100.00
5996;BME280;3026;53.612;7.278;2023-01-25T05:34:24;103490.78;;;0.39;100.00
5996;BME280;3026;53.612;7.278;2023-01-25T05:36:51;103493.59;;;0.35;100.00
5996;BME280;3026;53.612;7.278;2023-01-25T05:39:18;103503.25;;;0.42;100.00
5996;BME280;3026;53.612;7.278;2023-01-25T05:41:46;103503.19;;;0.43;100.00
5996;BME280;3026;53.612;7.278;2023-01-25T05:44:13;103488.84;;;0.44;100.00
5996;BME280;3026;53.612;7.278;2023-01-25T05:46:40;103503.19;;;0.43;100.00
5996;BME280;3026;53.612;7.278;2023-01-25T05:49:10;103497.91;;;0.40;100.00
5996;BME280;3026;53.612;7.278;2023-01-25T05:51:37;103500.69;;;0.37;100.00
5996;BME280;3026;53.612;7.278;2023-01-25T05:54:05;103492.81;;;0.31;100.00
5996;BME280;3026;53.612;7.278;2023-01-25T05:56:33;103490.94;;;0.33;100.00
5996;BME280;3026;53.612;7.278;2023-01-25T05:59:00;103491.81;;;0.34;100.00
5996;BME280;3026;53.612;7.278;2023-01-25T06:01:27;103487.44;;;0.31;100.00
5996;BME280;3026;53.612;7.278;2023-01-25T06:03:55;103492.88;;;0.28;100.00
5996;BME280;3026;53.612;7.278;2023-01-25T06:06:23;103484.00;;;0.26;100.00
5996;BME280;3026;53.612;7.278;2023-01-25T06:08:50;103489.38;;;0.26;100.00
5996;BME280;3026;53.612;7.278;2023-01-25T06:11:20;103487.63;;;0.25;100.00
5996;BME280;3026;53.612;7.278;2023-01-25T06:13:47;103481.31;;;0.26;100.00
5996;BME280;3026;53.612;7.278;2023-01-25T06:16:15;103473.31;;;0.23;100.00
5996;BME280;3026;53.612;7.278;2023-01-25T06:18:43;103484.78;;;0.29;100.00
5996;BME280;3026;53.612;7.278;2023-01-25T06:21:10;103469.75;;;0.24;100.00
5996;BME280;3026;53.612;7.278;2023-01-25T06:23:39;103470.63;;;0.24;100.00
5996;BME280;3026;53.612;7.278;2023-01-25T06:26:09;103471.41;;;0.28;100.00
5996;BME280;3026;53.612;7.278;2023-01-25T06:28:36;103475.03;;;0.27;100.00
5996;BME280;3026;53.612;7.278;2023-01-25T06:31:06;103473.28;;;0.26;100.00
5996;BME280;3026;53.612;7.278;2023-01-25T06:33:33;103466.16;;;0.25;100.00
5996;BME280;3026;53.612;7.278;2023-01-25T06:36:00;103456.34;;;0.24;100.00
5996;BME280;3026;53.612;7.278;2023-01-25T06:38:28;103449.28;;;0.20;100.00
5996;BME280;3026;53.612;7.278;2023-01-25T06:41:01;103461.72;;;0.22;100.00
5996;BME280;3026;53.612;7.278;2023-01-25T06:43:30;103457.22;;;0.23;100.00
5996;BME280;3026;53.612;7.278;2023-01-25T06:45:58;103462.59;;;0.23;100.00
5996;BME280;3026;53.612;7.278;2023-01-25T06:48:26;103459.06;;;0.21;100.00
5996;BME280;3026;53.612;7.278;2023-01-25T06:50:54;103466.22;;;0.22;100.00
5996;BME280;3026;53.612;7.278;2023-01-25T06:53:24;103460.84;;;0.22;100.00
5996;BME280;3026;53.612;7.278;2023-01-25T06:55:56;103451.84;;;0.23;100.00
5996;BME280;3026;53.612;7.278;2023-01-25T06:58:25;103455.41;;;0.25;100.00
5996;BME280;3026;53.612;7.278;2023-01-25T07:00:52;103448.28;;;0.24;100.00
5996;BME280;3026;53.612;7.278;2023-01-25T07:03:19;103453.66;;;0.24;100.00
5996;BME280;3026;53.612;7.278;2023-01-25T07:05:46;103460.84;;;0.22;100.00
5996;BME280;3026;53.612;7.278;2023-01-25T07:08:14;103463.56;;;0.20;100.00
5996;BME280;3026;53.612;7.278;2023-01-25T07:10:41;103466.38;;;0.16;100.00
5996;BME280;3026;53.612;7.278;2023-01-25T07:13:08;103466.47;;;0.13;100.00
5996;BME280;3026;53.612;7.278;2023-01-25T07:15:37;103451.31;;;0.12;100.00
5996;BME280;3026;53.612;7.278;2023-01-25T07:18:05;103447.72;;;0.11;100.00
5996;BME280;3026;53.612;7.278;2023-01-25T07:20:32;103458.44;;;0.13;100.00
5996;BME280;3026;53.612;7.278;2023-01-25T07:22:59;103459.25;;;0.15;100.00
5996;BME280;3026;53.612;7.278;2023-01-25T07:25:26;103454.78;;;0.15;100.00
5996;BME280;3026;53.612;7.278;2023-01-25T07:27:53;103454.72;;;0.17;100.00
5996;BME280;3026;53.612;7.278;2023-01-25T07:30:20;103443.06;;;0.18;100.00
5996;BME280;3026;53.612;7.278;2023-01-25T07:32:49;103443.06;;;0.18;100.00
5996;BME280;3026;53.612;7.278;2023-01-25T07:35:16;103437.78;;;0.15;100.00
5996;BME280;3026;53.612;7.278;2023-01-25T07:37:43;103444.91;;;0.16;100.00
5996;BME280;3026;53.612;7.278;2023-01-25T07:40:10;103441.31;;;0.17;100.00
5996;BME280;3026;53.612;7.278;2023-01-25T07:42:38;103432.34;;;0.18;100.00
5996;BME280;3026;53.612;7.278;2023-01-25T07:45:05;103426.94;;;0.19;100.00
5996;BME280;3026;53.612;7.278;2023-01-25T07:47:33;103432.25;;;0.21;100.00
5996;BME280;3026;53.612;7.278;2023-01-25T07:50:01;103426.88;;;0.21;100.00
5996;BME280;3026;53.612;7.278;2023-01-25T07:52:28;103425.13;;;0.20;100.00
5996;BME280;3026;53.612;7.278;2023-01-25T07:54:55;103418.97;;;0.16;100.00
5996;BME280;3026;53.612;7.278;2023-01-25T07:57:23;103416.38;;;0.13;100.00
5996;BME280;3026;53.612;7.278;2023-01-25T07:59:50;103408.38;;;0.12;100.00
5996;BME280;3026;53.612;7.278;2023-01-25T08:02:17;103403.91;;;0.11;100.00
5996;BME280;3026;53.612;7.278;2023-01-25T08:04:44;103400.31;;;0.12;100.00
5996;BME280;3026;53.612;7.278;2023-01-25T08:07:13;103405.69;;;0.12;100.00
5996;BME280;3026;53.612;7.278;2023-01-25T08:09:41;103398.53;;;0.11;100.00
5996;BME280;3026;53.612;7.278;2023-01-25T08:12:08;103406.59;;;0.11;100.00
5996;BME280;3026;53.612;7.278;2023-01-25T08:14:35;103400.38;;;0.09;100.00
5996;BME280;3026;53.612;7.278;2023-01-25T08:17:02;103409.34;;;0.08;100.00
5996;BME280;3026;53.612;7.278;2023-01-25T08:19:29;103411.13;;;0.09;100.00
5996;BME280;3026;53.612;7.278;2023-01-25T08:21:56;103409.25;;;0.11;100.00
5996;BME280;3026;53.612;7.278;2023-01-25T08:24:24;103393.16;;;0.11;100.00
5996;BME280;3026;53.612;7.278;2023-01-25T08:26:51;103385.97;;;0.13;100.00
5996;BME280;3026;53.612;7.278;2023-01-25T08:29:18;103386.03;;;0.10;100.00
5996;BME280;3026;53.612;7.278;2023-01-25T08:31:45;103377.25;;;0.05;100.00
5996;BME280;3026;53.612;7.278;2023-01-25T08:34:12;103379.13;;;0.03;100.00
5996;BME280;3026;53.612;7.278;2023-01-25T08:36:39;103375.59;;;0.01;100.00
5996;BME280;3026;53.612;7.278;2023-01-25T08:39:07;103372.91;;;0.01;100.00
5996;BME280;3026;53.612;7.278;2023-01-25T08:41:37;103370.34;;;-0.04;100.00
5996;BME280;3026;53.612;7.278;2023-01-25T08:44:04;103366.00;;;-0.08;100.00
5996;BME280;3026;53.612;7.278;2023-01-25T08:46:32;103358.00;;;-0.10;100.00
5996;BME280;3026;53.612;7.278;2023-01-25T08:49:00;103347.16;;;-0.07;100.00
5996;BME280;3026;53.612;7.278;2023-01-25T08:51:28;103350.69;;;-0.05;100.00
5996;BME280;3026;53.612;7.278;2023-01-25T08:54:01;103348.84;;;-0.03;100.00
5996;BME280;3026;53.612;7.278;2023-01-25T08:56:28;103356.94;;;-0.04;100.00
5996;BME280;3026;53.612;7.278;2023-01-25T08:58:56;103354.28;;;-0.06;100.00
5996;BME280;3026;53.612;7.278;2023-01-25T09:01:24;103349.91;;;-0.08;100.00
5996;BME280;3026;53.612;7.278;2023-01-25T09:03:50;103349.91;;;-0.08;100.00
5996;BME280;3026;53.612;7.278;2023-01-25T09:06:18;103347.31;;;-0.13;100.00
5996;BME280;3026;53.612;7.278;2023-01-25T09:08:46;103339.31;;;-0.14;100.00
5996;BME280;3026;53.612;7.278;2023-01-25T09:11:15;103337.63;;;-0.17;100.00
5996;BME280;3026;53.612;7.278;2023-01-25T09:13:42;103343.06;;;-0.20;100.00
5996;BME280;3026;53.612;7.278;2023-01-25T09:16:13;103342.16;;;-0.19;100.00
5996;BME280;3026;53.612;7.278;2023-01-25T09:18:42;103348.34;;;-0.17;100.00
5996;BME280;3026;53.612;7.278;2023-01-25T09:21:11;103347.38;;;-0.14;100.00
5996;BME280;3026;53.612;7.278;2023-01-25T09:23:38;103345.56;;;-0.14;100.00
5996;BME280;3026;53.612;7.278;2023-01-25T09:26:05;103345.50;;;-0.11;100.00
5996;BME280;3026;53.612;7.278;2023-01-25T09:28:32;103350.94;;;-0.14;100.00
5996;BME280;3026;53.612;7.278;2023-01-25T09:31:02;103341.03;;;-0.12;100.00
5996;BME280;3026;53.612;7.278;2023-01-25T09:33:32;103342.81;;;-0.11;100.00
5996;BME280;3026;53.612;7.278;2023-01-25T09:36:00;103341.03;;;-0.10;100.00
5996;BME280;3026;53.612;7.278;2023-01-25T09:38:27;103333.00;;;-0.12;100.00
5996;BME280;3026;53.612;7.278;2023-01-25T09:41:10;103332.00;;;-0.08;100.00
5996;BME280;3026;53.612;7.278;2023-01-25T09:43:51;103316.75;;;-0.06;100.00
5996;BME280;3026;53.612;7.278;2023-01-25T09:46:35;103315.97;;;-0.09;100.00
5996;BME280;3026;53.612;7.278;2023-01-25T09:49:17;103318.63;;;-0.09;100.00
5996;BME280;3026;53.612;7.278;2023-01-25T09:52:00;103324.06;;;-0.11;100.00
5996;BME280;3026;53.612;7.278;2023-01-25T09:54:31;103318.59;;;-0.08;100.00
5996;BME280;3026;53.612;7.278;2023-01-25T09:57:03;103318.59;;;-0.08;100.00
5996;BME280;3026;53.612;7.278;2023-01-25T09:59:30;103313.13;;;-0.05;100.00
5996;BME280;3026;53.612;7.278;2023-01-25T10:02:00;103301.44;;;-0.02;100.00
5996;BME280;3026;53.612;7.278;2023-01-25T10:04:36;103302.25;;;0.02;100.00
5996;BME280;3026;53.612;7.278;2023-01-25T10:07:13;103303.16;;;0.01;100.00
5996;BME280;3026;53.612;7.278;2023-01-25T10:09:47;103304.94;;;0.02;100.00
5996;BME280;3026;53.612;7.278;2023-01-25T10:12:18;103293.44;;;-0.04;100.00
5996;BME280;3026;53.612;7.278;2023-01-25T10:14:46;103289.97;;;-0.07;100.00
5996;BME280;3026;53.612;7.278;2023-01-25T10:17:19;103277.44;;;-0.07;100.00
5996;BME280;3026;53.612;7.278;2023-01-25T10:20:02;103273.91;;;-0.09;100.00
5996;BME280;3026;53.612;7.278;2023-01-25T10:22:34;103273.81;;;-0.06;100.00
5996;BME280;3026;53.612;7.278;2023-01-25T10:25:23;103266.69;;;-0.07;100.00
5996;BME280;3026;53.612;7.278;2023-01-25T10:28:04;103273.81;;;-0.06;100.00
5996;BME280;3026;53.612;7.278;2023-01-25T10:30:36;103255.09;;;-0.07;100.00
5996;BME280;3026;53.612;7.278;2023-01-25T10:33:12;103261.44;;;-0.10;100.00
5996;BME280;3026;53.612;7.278;2023-01-25T10:35:43;103251.63;;;-0.11;100.00
5996;BME280;3026;53.612;7.278;2023-01-25T10:38:15;103241.75;;;-0.09;100.00
5996;BME280;3026;53.612;7.278;2023-01-25T10:40:49;103238.28;;;-0.14;100.00
5996;BME280;3026;53.612;7.278;2023-01-25T10:43:20;103232.06;;;-0.14;100.00
5996;BME280;3026;53.612;7.278;2023-01-25T10:45:48;103224.06;;;-0.16;100.00
5996;BME280;3026;53.612;7.278;2023-01-25T10:48:17;103218.88;;;-0.22;100.00
5996;BME280;3026;53.612;7.278;2023-01-25T10:51:00;103215.34;;;-0.24;100.00
5996;BME280;3026;53.612;7.278;2023-01-25T10:53:30;103214.41;;;-0.21;100.00
5996;BME280;3026;53.612;7.278;2023-01-25T10:56:01;103202.81;;;-0.22;100.00
5996;BME280;3026;53.612;7.278;2023-01-25T10:58:31;103200.19;;;-0.25;100.00
5996;BME280;3026;53.612;7.278;2023-01-25T11:00:59;103195.69;;;-0.23;100.00
5996;BME280;3026;53.612;7.278;2023-01-25T11:03:34;103187.53;;;-0.20;100.00
5996;BME280;3026;53.612;7.278;2023-01-25T11:06:04;103181.34;;;-0.22;100.00
5996;BME280;3026;53.612;7.278;2023-01-25T11:08:33;103163.41;;;-0.20;100.00
5996;BME280;3026;53.612;7.278;2023-01-25T11:11:16;103165.16;;;-0.19;100.00
5996;BME280;3026;53.612;7.278;2023-01-25T11:13:48;103163.19;;;-0.14;100.00
5996;BME280;3026;53.612;7.278;2023-01-25T11:16:23;103163.13;;;-0.11;100.00
5996;BME280;3026;53.612;7.278;2023-01-25T11:18:52;103163.13;;;-0.11;100.00
5996;BME280;3026;53.612;7.278;2023-01-25T11:21:22;103156.72;;;-0.07;100.00
5996;BME280;3026;53.612;7.278;2023-01-25T11:24:02;103146.72;;;-0.02;100.00
5996;BME280;3026;53.612;7.278;2023-01-25T11:26:30;103143.16;;;-0.02;100.00
5996;BME280;3026;53.612;7.278;2023-01-25T11:29:10;103135.03;;;0.01;100.00
5996;BME280;3026;53.612;7.278;2023-01-25T11:31:37;103132.31;;;0.03;100.00
5996;BME280;3026;53.612;7.278;2023-01-25T11:34:08;103139.44;;;0.04;100.00
5996;BME280;3026;53.612;7.278;2023-01-25T11:36:43;103135.91;;;0.02;100.00
5996;BME280;3026;53.612;7.278;2023-01-25T11:39:24;103124.38;;;-0.02;100.00
5996;BME280;3026;53.612;7.278;2023-01-25T11:42:01;103117.22;;;-0.02;100.00
5996;BME280;3026;53.612;7.278;2023-01-25T11:44:55;103098.44;;;-0.02;100.00
5996;BME280;3026;53.612;7.278;2023-01-25T11:47:37;103091.25;;;0.01;100.00
5996;BME280;3026;53.612;7.278;2023-01-25T11:50:11;103080.59;;;-0.03;100.00
5996;BME280;3026;53.612;7.278;2023-01-25T11:52:57;103071.72;;;-0.05;100.00
5996;BME280;3026;53.612;7.278;2023-01-25T11:55:28;103068.22;;;-0.07;100.00
5996;BME280;3026;53.612;7.278;2023-01-25T11:58:14;103066.53;;;-0.09;100.00
5996;BME280;3026;53.612;7.278;2023-01-25T12:00:53;103055.84;;;-0.11;100.00
5996;BME280;3026;53.612;7.278;2023-01-25T12:03:40;103054.97;;;-0.11;100.00
5996;BME280;3026;53.612;7.278;2023-01-25T12:06:12;103039.78;;;-0.12;100.00
5996;BME280;3026;53.612;7.278;2023-01-25T12:08:52;103047.06;;;-0.16;100.00
5996;BME280;3026;53.612;7.278;2023-01-25T12:11:35;103041.59;;;-0.13;100.00
5996;BME280;3026;53.612;7.278;2023-01-25T12:14:11;103030.88;;;-0.13;100.00
5996;BME280;3026;53.612;7.278;2023-01-25T12:16:56;103027.25;;;-0.12;100.00
5996;BME280;3026;53.612;7.278;2023-01-25T12:19:50;103018.19;;;-0.08;100.00
5996;BME280;3026;53.612;7.278;2023-01-25T12:22:42;103012.81;;;-0.08;100.00
5996;BME280;3026;53.612;7.278;2023-01-25T12:25:20;102992.38;;;-0.10;100.00
5996;BME280;3026;53.612;7.278;2023-01-25T12:28:02;102987.75;;;-0.07;100.00
5996;BME280;3026;53.612;7.278;2023-01-25T12:30:44;102984.16;;;-0.06;100.00
5996;BME280;3026;53.612;7.278;2023-01-25T12:33:18;102991.06;;;0.02;100.00
5996;BME280;3026;53.612;7.278;2023-01-25T12:35:51;102980.41;;;0.00;100.00
5996;BME280;3026;53.612;7.278;2023-01-25T12:38:24;102967.75;;;0.04;100.00
5996;BME280;3026;53.612;7.278;2023-01-25T12:40:58;102965.00;;;0.05;100.00
5996;BME280;3026;53.612;7.278;2023-01-25T12:43:32;102947.22;;;0.03;100.00
5996;BME280;3026;53.612;7.278;2023-01-25T12:46:08;102946.34;;;0.02;100.00
5996;BME280;3026;53.612;7.278;2023-01-25T12:48:40;102955.25;;;0.03;100.00
5996;BME280;3026;53.612;7.278;2023-01-25T12:51:08;102949.91;;;0.03;100.00
5996;BME280;3026;53.612;7.278;2023-01-25T12:53:37;102943.50;;;0.07;100.00
5996;BME280;3026;53.612;7.278;2023-01-25T12:56:08;102939.75;;;0.11;100.00
5996;BME280;3026;53.612;7.278;2023-01-25T12:58:42;102936.16;;;0.12;100.00
5996;BME280;3026;53.612;7.278;2023-01-25T13:01:20;102930.06;;;0.07;100.00
5996;BME280;3026;53.612;7.278;2023-01-25T13:04:01;102932.56;;;0.13;100.00
5996;BME280;3026;53.612;7.278;2023-01-25T13:06:36;102919.22;;;0.10;100.00
5996;BME280;3026;53.612;7.278;2023-01-25T13:09:09;102925.31;;;0.15;100.00
5996;BME280;3026;53.612;7.278;2023-01-25T13:11:42;102919.84;;;0.18;100.00
5996;BME280;3026;53.612;7.278;2023-01-25T13:14:27;102914.34;;;0.21;100.00
5996;BME280;3026;53.612;7.278;2023-01-25T13:17:10;102906.31;;;0.21;100.00
5996;BME280;3026;53.612;7.278;2023-01-25T13:19:41;102900.84;;;0.24;100.00
5996;BME280;3026;53.612;7.278;2023-01-25T13:22:09;102891.88;;;0.25;100.00